Latest Weather Observations for Learmonth

IDW60801

Issued at 5:23 pm WST Tuesday 23 October 2018 (issued every 10 minutes, with the page automatically refreshed every 10 minutes)

About weather observations | Map of weather stations | Latest weather observations for WA | Other Formats
Station Details ID: 005007 Name: LEARMONTH AIRPORT Lat: -22.24 Lon: 114.10 Height: 5.0 m
Data from the previous 72 hours. | See also: Recent months at Learmonth
Date/Time
WST
Temp
°C
App
Temp
°C
Dew
Point
°C
Rel
Hum
%
Delta-T
°C
Wind Press
QNH
hPa
Press
MSL
hPa
Rain since
9am
mm
Dir  Spd
km/h
Gust
km/h
Spd
kts
Gust
kts
23/05:00pm 30.7 23.8 4.4 19 13.6 WSW 30 37 16 20 1011.4 1011.3 0.0
23/04:30pm 31.5 24.8 3.5 17 14.3 WSW 28 41 15 22 1011.3 1011.2 0.0
23/04:00pm 32.7 25.5 0.7 13 15.8 WSW 28 39 15 21 1011.2 1011.1 0.0
23/03:30pm 33.0 25.6 2.0 14 15.6 W 30 39 16 21 1011.1 1011.0 0.0
23/03:00pm 33.5 26.6 2.4 14 15.8 W 28 37 15 20 1011.1 1011.0 0.0
23/02:30pm 34.7 29.4 6.9 18 15.3 WNW 24 32 13 17 1011.4 1011.3 0.0
23/02:00pm 32.8 27.5 -0.3 12 16.0 NNE 17 20 9 11 1011.6 1011.5 0.0
23/01:30pm 32.0 26.4 0.2 13 15.4 NE 19 26 10 14 1011.8 1011.7 0.0
23/01:00pm 32.3 26.6 0.4 13 15.6 ENE 20 24 11 13 1012.1 1012.0 0.0
23/12:30pm 31.9 26.2 3.0 16 14.7 E 22 32 12 17 1012.4 1012.3 0.0
23/12:00pm 33.4 28.3 3.3 15 15.5 ESE 19 30 10 16 1012.7 1012.6 0.0
23/11:30am 32.3 27.2 3.3 16 14.9 SE 19 26 10 14 1013.2 1013.1 0.0
23/11:00am 31.1 26.6 6.2 21 13.3 SSE 19 28 10 15 1013.4 1013.3 0.0
23/10:30am 29.5 25.0 6.8 24 12.1 SSE 20 28 11 15 1013.9 1013.8 0.0
23/10:00am 28.1 23.8 6.8 26 11.3 S 19 28 10 15 1014.2 1014.1 0.0
23/09:30am 26.5 21.7 7.5 30 10.1 S 22 30 12 16 1014.2 1014.1 0.0
23/09:00am 24.5 20.0 8.5 36 8.6 S 22 30 12 16 1014.2 1014.1 0.0
23/08:30am 23.3 18.6 9.3 41 7.6 S 24 32 13 17 1014.3 1014.2 0.0
23/08:00am 21.2 17.2 10.4 50 5.9 SSW 22 30 12 16 1014.5 1014.4 0.0
23/07:30am 19.3 15.3 10.6 57 4.7 SSW 22 28 12 15 1014.6 1014.5 0.0
23/07:00am 17.7 13.9 11.0 65 3.6 SSW 22 30 12 16 1014.5 1014.4 0.0
23/06:30am 16.2 12.9 11.6 74 2.5 SW 20 30 11 16 1014.2 1014.1 0.0
23/06:00am 15.1 11.9 11.9 81 1.7 SSW 20 24 11 13 1014.0 1013.9 0.0
23/05:30am 15.1 12.0 12.1 82 1.6 SW 20 26 11 14 1013.7 1013.6 0.0
23/05:00am 15.3 12.4 12.2 82 1.7 SW 19 22 10 12 1013.5 1013.4 0.0
23/04:30am 15.8 12.8 12.4 80 1.9 SSW 20 28 11 15 1013.5 1013.4 0.0
23/04:00am 16.2 12.8 12.6 79 2.0 SSW 22 30 12 16 1013.2 1013.1 0.0
23/03:30am 16.5 13.2 12.7 78 2.1 SSW 22 32 12 17 1013.1 1013.0 0.0
23/03:00am 17.0 13.4 12.9 77 2.3 SSW 24 30 13 16 1013.1 1013.0 0.0
23/02:30am 17.3 13.7 13.0 76 2.4 SW 24 35 13 19 1013.2 1013.1 0.0
23/02:00am 17.3 13.7 13.2 77 2.3 SW 24 32 13 17 1013.3 1013.2 0.0
23/01:30am 17.5 13.9 13.2 76 2.4 SW 24 32 13 17 1013.4 1013.3 0.0
23/01:00am 17.8 14.3 13.3 75 2.5 SW 24 32 13 17 1013.8 1013.7 0.0
23/12:30am 18.2 15.1 13.5 74 2.7 SW 22 32 12 17 1014.1 1014.0 0.0
23/12:00am 18.7 14.6 13.8 73 2.8 SSW 28 39 15 21 1014.2 1014.1 0.0
 
Date/Time
WST
Temp
°C
App
Temp
°C
Dew
Point
°C
Rel
Hum
%
Delta-T
°C
Wind Press
QNH
hPa
Press
MSL
hPa
Rain since
9am
mm
Dir  Spd
km/h
Gust
km/h
Spd
kts
Gust
kts
22/11:30pm 19.2 14.5 14.2 73 2.9 SSW 32 43 17 23 1014.3 1014.2 0.0
22/11:00pm 19.8 15.0 14.6 72 3.0 SSW 33 48 18 26 1014.2 1014.1 0.0
22/10:30pm 20.0 15.5 15.4 75 2.7 SSW 33 44 18 24 1014.4 1014.3 0.0
22/10:00pm 20.3 16.0 15.5 74 2.8 SSW 32 44 17 24 1014.4 1014.3 0.0
22/09:30pm 20.5 16.4 15.9 75 2.7 SW 32 41 17 22 1014.4 1014.3 0.0
22/09:00pm 20.8 17.1 16.0 74 2.9 SW 30 39 16 21 1014.4 1014.3 0.0
22/08:30pm 21.1 17.2 15.6 71 3.3 SW 30 39 16 21 1014.2 1014.1 0.0
22/08:00pm 21.8 18.6 15.4 67 3.8 SW 26 35 14 19 1014.0 1013.9 0.0
22/07:30pm 22.3 18.7 15.2 64 4.2 SW 28 37 15 20 1013.9 1013.8 0.0
22/07:00pm 23.2 18.6 14.7 58 5.0 SW 32 41 17 22 1013.6 1013.5 0.0
22/06:30pm 24.6 20.0 13.5 50 6.5 SW 30 37 16 20 1013.3 1013.2 0.0
22/06:00pm 26.6 21.2 12.3 41 8.3 SW 32 41 17 22 1013.2 1013.1 0.0
22/05:30pm 27.9 22.3 11.5 36 9.4 SW 32 41 17 22 1012.9 1012.8 0.0
22/05:00pm 29.2 23.0 11.3 33 10.3 SW 35 43 19 23 1012.7 1012.6 0.0
22/04:30pm 30.8 24.8 10.7 29 11.5 SW 33 43 18 23 1012.5 1012.4 0.0
22/04:00pm 31.9 25.9 10.0 26 12.5 SW 32 43 17 23 1012.5 1012.4 0.0
22/03:30pm 33.2 27.2 8.6 22 13.8 SW 30 39 16 21 1012.4 1012.3 0.0
22/03:00pm 33.5 27.0 8.2 21 14.1 SW 32 44 17 24 1012.5 1012.4 0.0
22/02:30pm 34.4 28.8 0.9 12 16.7 SSW 20 32 11 17 1012.9 1012.8 0.0
22/02:00pm 34.8 28.8 1.2 12 16.9 SSE 22 33 12 18 1013.2 1013.1 0.0
22/01:30pm 32.9 27.4 3.8 16 15.1 SSE 22 33 12 18 1013.8 1013.7 0.0
22/01:00pm 33.0 27.0 0.9 13 15.9 SE 22 32 12 17 1014.4 1014.3 0.0
22/12:30pm 32.1 26.4 3.1 16 14.8 SE 22 32 12 17 1015.0 1014.9 0.0
22/12:00pm 31.0 25.9 6.1 21 13.3 SSE 22 32 12 17 1015.5 1015.4 0.0
22/11:30am 30.3 26.1 8.1 25 12.2 SSE 20 28 11 15 1016.0 1015.9 0.0
22/11:00am 28.0 23.4 8.3 29 10.7 SSE 22 30 12 16 1016.4 1016.3 0.0
22/10:30am 27.6 22.8 9.0 31 10.2 SSE 24 33 13 18 1016.9 1016.8 0.0
22/10:00am 26.1 21.6 9.9 36 9.0 SSE 24 35 13 19 1017.1 1017.0 0.0
22/09:30am 25.4 21.0 10.4 39 8.3 S 24 33 13 18 1017.3 1017.2 0.0
22/09:00am 23.6 18.5 10.6 44 7.2 S 28 35 15 19 1017.2 1017.1 0.0
22/08:30am 22.0 17.0 10.8 49 6.2 S 28 35 15 19 1017.3 1017.2 0.0
22/08:00am 20.1 14.9 11.6 58 4.7 S 30 37 16 20 1017.3 1017.2 0.0
22/07:30am 18.8 14.4 11.6 63 4.0 S 26 37 14 20 1017.1 1017.0 0.0
22/07:00am 16.7 13.1 12.0 74 2.6 SSW 22 30 12 16 1017.0 1016.9 0.0
22/06:30am 15.2 11.6 12.0 81 1.7 SW 22 28 12 15 1016.7 1016.6 0.0
22/06:00am 14.4 11.4 11.9 85 1.3 SW 19 24 10 13 1016.2 1016.1 0.0
22/05:30am 14.4 11.1 11.7 84 1.4 SSW 20 24 11 13 1015.8 1015.7 0.0
22/05:00am 14.7 11.7 12.0 84 1.5 SSW 19 24 10 13 1015.6 1015.5 0.0
22/04:30am 15.2 12.3 12.2 82 1.6 SSW 19 24 10 13 1015.3 1015.2 0.0
22/04:00am 15.7 12.6 12.3 80 1.9 SSW 20 28 11 15 1014.9 1014.8 0.0
22/03:30am 16.1 12.3 12.5 79 2.0 SSW 24 32 13 17 1014.6 1014.5 0.0
22/03:00am 16.5 12.4 12.7 78 2.1 SSW 26 33 14 18 1014.6 1014.5 0.0
22/02:30am 16.9 12.9 13.0 78 2.2 SSW 26 33 14 18 1014.7 1014.6 0.0
22/02:00am 17.0 13.0 12.9 77 2.3 SSW 26 35 14 19 1014.8 1014.7 0.0
22/01:30am 17.4 13.5 13.3 77 2.3 SSW 26 35 14 19 1015.0 1014.9 0.0
22/01:00am 17.5 14.3 13.0 75 2.5 SSW 22 32 12 17 1015.2 1015.1 0.0
22/12:30am 17.9 14.7 13.2 74 2.6 SW 22 30 12 16 1015.2 1015.1 0.0
22/12:00am 18.4 14.6 13.5 73 2.8 SSW 26 33 14 18 1015.2 1015.1 0.0
 
Date/Time
WST
Temp
°C
App
Temp
°C
Dew
Point
°C
Rel
Hum
%
Delta-T
°C
Wind Press
QNH
hPa
Press
MSL
hPa
Rain since
9am
mm
Dir  Spd
km/h
Gust
km/h
Spd
kts
Gust
kts
21/11:30pm 18.8 14.6 13.6 72 3.0 SW 28 37 15 20 1015.4 1015.3 0.0
21/11:00pm 19.2 14.3 13.8 71 3.1 SSW 32 41 17 22 1015.3 1015.2 0.0
21/10:30pm 19.7 14.8 13.6 68 3.5 SSW 32 43 17 23 1015.3 1015.2 0.0
21/10:00pm 20.1 15.3 14.5 70 3.3 SSW 33 41 18 22 1015.3 1015.2 0.0
21/09:30pm 20.5 15.8 14.8 70 3.3 SSW 33 43 18 23 1015.2 1015.1 0.0
21/09:00pm 20.7 16.2 14.8 69 3.5 SSW 32 44 17 24 1015.1 1015.0 0.0
21/08:30pm 21.0 16.5 14.9 68 3.6 SW 32 43 17 23 1014.9 1014.8 0.0
21/08:00pm 21.3 17.2 14.9 67 3.8 SW 30 39 16 21 1014.6 1014.5 0.0
21/07:30pm 21.8 17.1 14.9 65 4.1 SW 33 43 18 23 1014.3 1014.2 0.0
21/07:00pm 22.5 17.8 14.9 62 4.5 SW 33 48 18 26 1014.1 1014.0 0.0
21/06:30pm 23.9 19.7 14.6 56 5.5 SW 30 39 16 21 1013.8 1013.7 0.0
21/06:00pm 25.4 19.9 13.6 48 6.9 SW 35 44 19 24 1013.4 1013.3 0.0
21/05:30pm 27.6 22.1 13.5 41 8.3 SW 35 50 19 27 1013.0 1012.9 0.0
21/05:00pm 29.5 22.9 11.5 33 10.4 SSW 37 46 20 25 1012.7 1012.6 0.0
21/04:30pm 31.1 24.0 11.0 29 11.6 SW 39 46 21 25 1012.4 1012.3 0.0
21/04:00pm 32.0 25.2 10.7 27 12.3 SW 37 48 20 26 1012.4 1012.3 0.0
21/03:30pm 34.0 27.2 7.9 20 14.5 SSW 33 46 18 25 1012.2 1012.1 0.0
21/03:00pm 35.0 29.1 -2.6 9 17.8 SSW 19 32 10 17 1012.4 1012.3 0.0
21/02:30pm 34.4 27.8 2.0 13 16.5 S 26 57 14 31 1012.7 1012.6 0.0
21/02:00pm 33.9 28.0 3.7 15 15.7 SSE 24 35 13 19 1013.1 1013.0 0.0
21/01:30pm 33.3 27.4 4.1 16 15.3 SSE 24 35 13 19 1013.6 1013.5 0.0
21/01:00pm 32.4 25.7 5.8 19 14.2 SSE 30 37 16 20 1014.1 1014.0 0.0
21/12:30pm 32.4 26.3 6.6 20 14.0 SE 28 37 15 20 1014.6 1014.5 0.0
21/12:00pm 31.6 26.6 8.0 23 13.0 SSE 24 35 13 19 1015.1 1015.0 0.0
21/11:30am 30.7 25.4 8.4 25 12.3 S 26 39 14 21 1015.6 1015.5 0.0
21/11:00am 29.2 23.9 8.3 27 11.4 S 26 35 14 19 1016.0 1015.9 0.0
21/10:30am 28.7 23.5 8.9 29 10.9 S 26 35 14 19 1016.5 1016.4 0.0
21/10:00am 26.7 21.3 9.5 34 9.5 S 28 39 15 21 1016.8 1016.7 0.0
21/09:30am 25.2 19.0 9.5 37 8.6 S 32 44 17 24 1017.0 1016.9 0.0
21/09:00am 23.4 18.0 10.8 45 7.0 S 30 43 16 23 1017.4 1017.3 0.0
21/08:30am 22.0 17.2 11.7 52 5.8 S 28 37 15 20 1017.6 1017.5 0.0
21/08:00am 20.1 14.7 12.3 61 4.4 S 32 39 17 21 1017.6 1017.5 0.0
21/07:30am 19.2 14.7 12.7 66 3.6 S 28 39 15 21 1017.5 1017.4 0.0
21/07:00am 17.5 13.6 13.2 76 2.4 SSW 26 35 14 19 1017.4 1017.3 0.0
21/06:30am 16.1 13.1 13.6 85 1.4 SSW 22 32 12 17 1017.2 1017.1 0.0
21/06:00am 15.3 12.2 13.5 89 1.0 SSW 22 28 12 15 1016.9 1016.8 0.0
21/05:30am 15.4 12.3 13.4 88 1.1 SSW 22 30 12 16 1016.6 1016.5 0.0
21/05:00am 15.6 12.9 13.4 87 1.2 SSW 20 26 11 14 1016.3 1016.2 0.0
21/04:30am 15.9 12.5 13.6 86 1.3 SSW 24 30 13 16 1016.1 1016.0 0.0
21/04:00am 16.1 12.7 13.6 85 1.4 SSW 24 30 13 16 1015.9 1015.8 0.0
21/03:30am 16.5 12.3 13.6 83 1.6 SW 28 35 15 19 1015.8 1015.7 0.0
21/03:00am 16.7 13.0 13.8 83 1.6 SW 26 35 14 19 1015.8 1015.7 0.0
21/02:30am 16.9 13.5 13.8 82 1.8 SW 24 32 13 17 1015.8 1015.7 0.0
21/02:00am 17.2 14.3 13.9 81 1.9 SW 22 28 12 15 1016.1 1016.0 0.0
21/01:30am 17.5 15.0 14.0 80 2.0 SW 20 26 11 14 1016.0 1015.9 0.0
21/01:00am 18.1 14.4 14.0 77 2.3 SW 26 35 14 19 1016.0 1015.9 0.0
21/12:30am 18.6 15.0 14.3 76 2.5 SW 26 33 14 18 1016.2 1016.1 0.0
21/12:00am 19.0 15.4 14.1 73 2.8 SSW 26 33 14 18 1016.2 1016.1 0.0
 
Date/Time
WST
Temp
°C
App
Temp
°C
Dew
Point
°C
Rel
Hum
%
Delta-T
°C
Wind Press
QNH
hPa
Press
MSL
hPa
Rain since
9am
mm
Dir  Spd
km/h
Gust
km/h
Spd
kts
Gust
kts
20/11:30pm 19.6 15.7 14.4 72 3.0 SSW 28 37 15 20 1016.3 1016.2 0.0
20/11:00pm 20.1 16.3 14.7 71 3.2 SW 28 35 15 19 1016.3 1016.2 0.0
20/10:30pm 20.5 16.8 15.1 71 3.2 SW 28 39 15 21 1016.3 1016.2 0.0
20/10:00pm 21.0 17.3 14.9 68 3.6 SW 28 37 15 20 1016.3 1016.2 0.0
20/09:30pm 21.5 16.7 13.9 62 4.4 SW 32 41 17 22 1016.1 1016.0 0.0
20/09:00pm 22.3 16.7 11.4 50 6.1 SW 32 43 17 23 1015.8 1015.7 0.0
20/08:30pm 22.7 17.3 10.8 47 6.6 SW 30 41 16 22 1015.5 1015.4 0.0
20/08:00pm 22.9 19.0 10.7 46 6.7 SW 22 30 12 16 1015.3 1015.2 0.0
20/07:30pm 23.6 18.8 10.3 43 7.3 SW 26 37 14 20 1014.9 1014.8 0.0
20/07:00pm 24.5 19.6 10.0 40 8.0 SW 26 39 14 21 1014.4 1014.3 0.0
20/06:30pm 26.1 20.2 9.0 34 9.3 SW 30 39 16 21 1014.0 1013.9 0.0
20/06:00pm 28.2 22.3 7.4 27 11.2 SW 28 39 15 21 1013.7 1013.6 0.0
20/05:30pm 30.0 22.8 3.1 18 13.5 SW 30 37 16 20 1013.3 1013.2 0.0

Other Formats:

Comma delimited format used in spreadsheet applications
http://www.bom.gov.au/fwo/IDW60801/IDW60801.94302.axf

JavaScript Object Notation format (JSON) in row-major order
http://www.bom.gov.au/fwo/IDW60801/IDW60801.94302.json